EWG4EC EDDL-EDDH
Flight info
| Callsign | EWG4EC |
|---|---|
| Flight time | 0h 43m |
| Altitude | 33000 |
| Route | MEVEL4T MEVEL Y850 BASUM/N0443F320 Y850 PIXUR/N0443F310 Y850 MUBZI M105 RIBSO RIBSO3P |
| Aircraft | A319/M-SDE3FGHIRWY/LB1 |
Departure
| Time | 2026-05-04 14:29 |
|---|---|
| Airport | Düsseldorf Airport (EDDL) |
Arrival
| Time | 2026-05-04 15:12 |
|---|---|
| Airport | Hamburg Helmut Schmidt Airport (EDDH) |
| Time | Latitude | Longitude | Altitude | Speed | Heading |
|---|---|---|---|---|---|
| 2026-05-04 14:11 | 51.27888 | 6.76330 | 137 ft | 0 kts | 51° |
| 2026-05-04 14:17 | 51.27873 | 6.76304 | 137 ft | 4 kts | 40° |
| 2026-05-04 14:17 | 51.27852 | 6.76285 | 137 ft | 4 kts | 357° |
| 2026-05-04 14:17 | 51.27841 | 6.76301 | 137 ft | 0 kts | 268° |
| 2026-05-04 14:20 | 51.27841 | 6.76300 | 137 ft | 0 kts | 268° |
| 2026-05-04 14:21 | 51.27840 | 6.76295 | 137 ft | 2 kts | 268° |
| 2026-05-04 14:21 | 51.27840 | 6.76240 | 137 ft | 8 kts | 270° |
| 2026-05-04 14:22 | 51.27840 | 6.76125 | 137 ft | 13 kts | 272° |
| 2026-05-04 14:22 | 51.27910 | 6.76032 | 137 ft | 10 kts | 14° |
| 2026-05-04 14:22 | 51.27995 | 6.76049 | 137 ft | 15 kts | 356° |
| 2026-05-04 14:22 | 51.28108 | 6.76026 | 137 ft | 18 kts | 355° |
| 2026-05-04 14:23 | 51.28269 | 6.76315 | 137 ft | 18 kts | 52° |
| 2026-05-04 14:23 | 51.28349 | 6.76485 | 137 ft | 21 kts | 53° |
| 2026-05-04 14:23 | 51.28444 | 6.76683 | 137 ft | 21 kts | 52° |
| 2026-05-04 14:24 | 51.28529 | 6.76858 | 137 ft | 22 kts | 52° |
| 2026-05-04 14:24 | 51.28621 | 6.77050 | 137 ft | 20 kts | 53° |
| 2026-05-04 14:24 | 51.28712 | 6.77243 | 137 ft | 19 kts | 53° |
| 2026-05-04 14:24 | 51.28801 | 6.77431 | 137 ft | 24 kts | 52° |
| 2026-05-04 14:25 | 51.28907 | 6.77652 | 137 ft | 19 kts | 52° |
| 2026-05-04 14:25 | 51.29105 | 6.78065 | 137 ft | 15 kts | 53° |
| 2026-05-04 14:25 | 51.29168 | 6.78197 | 138 ft | 13 kts | 40° |
| 2026-05-04 14:26 | 51.29253 | 6.78194 | 139 ft | 8 kts | 328° |
| 2026-05-04 14:26 | 51.29258 | 6.78187 | 139 ft | 0 kts | 321° |
| 2026-05-04 14:27 | 51.29259 | 6.78185 | 139 ft | 0 kts | 321° |
| 2026-05-04 14:27 | 51.29260 | 6.78184 | 122 ft | 1 kts | 321° |
| 2026-05-04 14:27 | 51.29272 | 6.78168 | 118 ft | 4 kts | 321° |
| 2026-05-04 14:27 | 51.29298 | 6.78135 | 140 ft | 6 kts | 321° |
| 2026-05-04 14:28 | 51.29328 | 6.78070 | 140 ft | 8 kts | 266° |
| 2026-05-04 14:28 | 51.29313 | 6.78034 | 140 ft | 0 kts | 228° |
| 2026-05-04 14:28 | 51.29311 | 6.78030 | 140 ft | 2 kts | 230° |
| 2026-05-04 14:29 | 51.28881 | 6.77129 | 133 ft | 121 kts | 233° |
| 2026-05-04 14:29 | 51.27555 | 6.74327 | 1109 ft | 185 kts | 231° |
| 2026-05-04 14:30 | 51.26739 | 6.72527 | 1817 ft | 212 kts | 238° |
| 2026-05-04 14:30 | 51.26327 | 6.70236 | 3028 ft | 224 kts | 263° |
| 2026-05-04 14:30 | 51.27591 | 6.66045 | 5213 ft | 214 kts | 331° |
| 2026-05-04 14:31 | 51.29080 | 6.65822 | 6235 ft | 230 kts | 15° |
| 2026-05-04 14:31 | 51.32237 | 6.68513 | 8230 ft | 282 kts | 25° |
| 2026-05-04 14:32 | 51.36269 | 6.68956 | 10651 ft | 307 kts | 360° |
| 2026-05-04 14:32 | 51.38491 | 6.69120 | 11234 ft | 332 kts | 3° |
| 2026-05-04 14:32 | 51.40855 | 6.69360 | 12019 ft | 346 kts | 2° |
| 2026-05-04 14:32 | 51.43282 | 6.69528 | 13041 ft | 352 kts | 1° |
| 2026-05-04 14:33 | 51.45743 | 6.69620 | 14043 ft | 357 kts | 360° |
| 2026-05-04 14:33 | 51.48251 | 6.69653 | 14893 ft | 364 kts | 359° |
| 2026-05-04 14:33 | 51.50836 | 6.69650 | 15773 ft | 370 kts | 359° |
| 2026-05-04 14:33 | 51.53400 | 6.69632 | 16616 ft | 377 kts | 359° |
| 2026-05-04 14:34 | 51.56051 | 6.69656 | 17454 ft | 384 kts | 2° |
| 2026-05-04 14:34 | 51.58716 | 6.70338 | 18274 ft | 392 kts | 15° |
| 2026-05-04 14:34 | 51.61281 | 6.71913 | 19002 ft | 399 kts | 27° |
| 2026-05-04 14:34 | 51.63627 | 6.74352 | 19779 ft | 404 kts | 39° |
| 2026-05-04 14:35 | 51.65634 | 6.77553 | 20528 ft | 409 kts | 52° |
| 2026-05-04 14:35 | 51.67356 | 6.81252 | 21196 ft | 417 kts | 55° |
| 2026-05-04 14:35 | 51.69089 | 6.85040 | 21897 ft | 424 kts | 55° |
| 2026-05-04 14:35 | 51.70850 | 6.88892 | 22602 ft | 430 kts | 55° |
| 2026-05-04 14:36 | 51.72642 | 6.92799 | 23290 ft | 436 kts | 54° |
| 2026-05-04 14:36 | 51.74462 | 6.96758 | 23886 ft | 442 kts | 54° |
| 2026-05-04 14:36 | 51.76304 | 7.00775 | 24463 ft | 447 kts | 54° |
| 2026-05-04 14:36 | 51.78160 | 7.04834 | 25053 ft | 452 kts | 55° |
| 2026-05-04 14:37 | 51.80030 | 7.08941 | 25622 ft | 456 kts | 55° |
| 2026-05-04 14:37 | 51.81922 | 7.13107 | 26193 ft | 460 kts | 55° |
| 2026-05-04 14:37 | 51.83826 | 7.17302 | 26767 ft | 465 kts | 54° |
| 2026-05-04 14:37 | 51.85792 | 7.21412 | 27307 ft | 471 kts | 49° |
| 2026-05-04 14:38 | 51.88058 | 7.25278 | 27858 ft | 475 kts | 46° |
| 2026-05-04 14:38 | 51.90364 | 7.29146 | 28416 ft | 480 kts | 46° |
| 2026-05-04 14:38 | 51.92689 | 7.33064 | 28964 ft | 484 kts | 46° |
| 2026-05-04 14:38 | 51.95029 | 7.37026 | 29446 ft | 489 kts | 46° |
| 2026-05-04 14:39 | 51.97392 | 7.41043 | 29947 ft | 494 kts | 46° |
| 2026-05-04 14:39 | 51.99769 | 7.45094 | 30381 ft | 498 kts | 46° |
| 2026-05-04 14:39 | 52.02168 | 7.49190 | 30806 ft | 502 kts | 46° |
| 2026-05-04 14:40 | 52.07012 | 7.57465 | 31716 ft | 507 kts | 46° |
| 2026-05-04 14:40 | 52.09441 | 7.61618 | 32315 ft | 506 kts | 46° |
| 2026-05-04 14:40 | 52.11873 | 7.65760 | 32809 ft | 506 kts | 45° |
| 2026-05-04 14:40 | 52.14321 | 7.69873 | 32954 ft | 503 kts | 45° |
| 2026-05-04 14:41 | 52.19140 | 7.77876 | 32975 ft | 491 kts | 45° |
| 2026-05-04 14:42 | 52.28575 | 7.93934 | 32951 ft | 489 kts | 45° |
| 2026-05-04 14:42 | 52.33226 | 8.01966 | 32977 ft | 490 kts | 45° |
| 2026-05-04 14:43 | 52.37913 | 8.10047 | 32986 ft | 489 kts | 45° |
| 2026-05-04 14:43 | 52.42597 | 8.18132 | 32987 ft | 489 kts | 45° |
| 2026-05-04 14:44 | 52.47268 | 8.26246 | 32986 ft | 489 kts | 45° |
| 2026-05-04 14:44 | 52.51931 | 8.34383 | 33012 ft | 489 kts | 45° |
| 2026-05-04 14:45 | 52.56584 | 8.42517 | 33006 ft | 488 kts | 45° |
| 2026-05-04 14:45 | 52.61240 | 8.50662 | 32980 ft | 488 kts | 45° |
| 2026-05-04 14:46 | 52.65884 | 8.58810 | 32953 ft | 488 kts | 45° |
| 2026-05-04 14:46 | 52.70514 | 8.67000 | 32983 ft | 488 kts | 45° |
| 2026-05-04 14:47 | 52.75735 | 8.74005 | 32979 ft | 480 kts | 26° |
| 2026-05-04 14:47 | 52.81860 | 8.77957 | 32977 ft | 468 kts | 6° |
| 2026-05-04 14:48 | 52.88192 | 8.78769 | 32982 ft | 456 kts | 353° |
| 2026-05-04 14:48 | 52.94547 | 8.78702 | 32955 ft | 456 kts | 353° |
| 2026-05-04 14:49 | 52.97726 | 8.78975 | 32422 ft | 461 kts | 1° |
| 2026-05-04 14:49 | 53.00901 | 8.79705 | 31750 ft | 459 kts | 1° |
| 2026-05-04 14:49 | 53.04055 | 8.80445 | 31071 ft | 456 kts | 1° |
| 2026-05-04 14:49 | 53.07189 | 8.81179 | 30361 ft | 454 kts | 1° |
| 2026-05-04 14:50 | 53.10309 | 8.81903 | 29571 ft | 451 kts | 1° |
| 2026-05-04 14:50 | 53.13401 | 8.82616 | 28860 ft | 447 kts | 1° |
| 2026-05-04 14:50 | 53.15436 | 8.83083 | 28379 ft | 444 kts | 1° |
| 2026-05-04 14:50 | 53.18481 | 8.83776 | 27658 ft | 440 kts | 1° |
| 2026-05-04 14:51 | 53.21500 | 8.84464 | 26936 ft | 435 kts | 2° |
| 2026-05-04 14:51 | 53.24487 | 8.85146 | 26240 ft | 432 kts | 2° |
| 2026-05-04 14:51 | 53.27451 | 8.85824 | 25539 ft | 428 kts | 2° |
| 2026-05-04 14:51 | 53.30395 | 8.86492 | 24851 ft | 425 kts | 2° |
| 2026-05-04 14:52 | 53.33318 | 8.87207 | 24183 ft | 425 kts | 6° |
| 2026-05-04 14:52 | 53.36170 | 8.88522 | 23518 ft | 427 kts | 16° |
| 2026-05-04 14:52 | 53.38913 | 8.90424 | 22809 ft | 425 kts | 19° |
| 2026-05-04 14:52 | 53.41618 | 8.92354 | 22227 ft | 419 kts | 19° |
| 2026-05-04 14:53 | 53.44288 | 8.94258 | 21607 ft | 414 kts | 19° |
| 2026-05-04 14:53 | 53.46918 | 8.96133 | 21031 ft | 408 kts | 19° |
| 2026-05-04 14:53 | 53.49515 | 8.97985 | 20434 ft | 402 kts | 19° |
| 2026-05-04 14:53 | 53.52078 | 8.99813 | 19836 ft | 397 kts | 19° |
| 2026-05-04 14:54 | 53.54530 | 9.01937 | 19220 ft | 396 kts | 28° |
| 2026-05-04 14:54 | 53.56788 | 9.04570 | 18597 ft | 393 kts | 32° |
| 2026-05-04 14:54 | 53.59004 | 9.07228 | 17911 ft | 389 kts | 32° |
| 2026-05-04 14:54 | 53.61194 | 9.09854 | 17246 ft | 384 kts | 32° |
| 2026-05-04 14:55 | 53.63355 | 9.12446 | 16601 ft | 378 kts | 32° |
| 2026-05-04 14:55 | 53.65485 | 9.15001 | 15961 ft | 374 kts | 32° |
| 2026-05-04 14:55 | 53.67592 | 9.17530 | 15296 ft | 370 kts | 32° |
| 2026-05-04 14:55 | 53.69676 | 9.20031 | 14657 ft | 366 kts | 32° |
| 2026-05-04 14:56 | 53.71713 | 9.22475 | 14021 ft | 362 kts | 32° |
| 2026-05-04 14:56 | 53.73760 | 9.24938 | 13337 ft | 359 kts | 33° |
| 2026-05-04 14:56 | 53.75777 | 9.27371 | 12695 ft | 354 kts | 33° |
| 2026-05-04 14:56 | 53.77765 | 9.29782 | 12061 ft | 349 kts | 34° |
| 2026-05-04 14:57 | 53.79556 | 9.32532 | 11429 ft | 348 kts | 47° |
| 2026-05-04 14:57 | 53.80954 | 9.35856 | 10809 ft | 347 kts | 60° |
| 2026-05-04 14:57 | 53.81896 | 9.39638 | 10598 ft | 353 kts | 73° |
| 2026-05-04 14:57 | 53.82434 | 9.43616 | 10386 ft | 337 kts | 79° |
| 2026-05-04 14:58 | 53.82889 | 9.47362 | 10109 ft | 317 kts | 79° |
| 2026-05-04 14:58 | 53.83328 | 9.50969 | 9771 ft | 309 kts | 79° |
| 2026-05-04 14:58 | 53.83760 | 9.54519 | 9608 ft | 306 kts | 79° |
| 2026-05-04 14:58 | 53.84186 | 9.58037 | 9175 ft | 304 kts | 79° |
| 2026-05-04 14:59 | 53.84607 | 9.61538 | 8755 ft | 302 kts | 79° |
| 2026-05-04 14:59 | 53.85023 | 9.65013 | 8337 ft | 300 kts | 79° |
| 2026-05-04 14:59 | 53.85843 | 9.71890 | 7990 ft | 291 kts | 79° |
| 2026-05-04 15:00 | 53.86230 | 9.75149 | 7989 ft | 275 kts | 78° |
| 2026-05-04 15:00 | 53.86595 | 9.78275 | 7825 ft | 267 kts | 81° |
| 2026-05-04 15:00 | 53.86660 | 9.81384 | 7430 ft | 263 kts | 97° |
| 2026-05-04 15:01 | 53.86216 | 9.87494 | 6714 ft | 260 kts | 98° |
| 2026-05-04 15:01 | 53.86000 | 9.90529 | 6468 ft | 257 kts | 98° |
| 2026-05-04 15:01 | 53.85791 | 9.93484 | 6213 ft | 249 kts | 98° |
| 2026-05-04 15:01 | 53.85585 | 9.96382 | 5955 ft | 247 kts | 98° |
| 2026-05-04 15:02 | 53.85381 | 9.99260 | 5698 ft | 246 kts | 97° |
| 2026-05-04 15:02 | 53.85177 | 10.02124 | 5447 ft | 244 kts | 98° |
| 2026-05-04 15:02 | 53.84954 | 10.04973 | 5191 ft | 244 kts | 99° |
| 2026-05-04 15:02 | 53.84692 | 10.07805 | 5028 ft | 243 kts | 100° |
| 2026-05-04 15:03 | 53.84417 | 10.10626 | 4988 ft | 243 kts | 100° |
| 2026-05-04 15:03 | 53.84140 | 10.13404 | 4888 ft | 235 kts | 100° |
| 2026-05-04 15:03 | 53.83877 | 10.16057 | 4760 ft | 224 kts | 100° |
| 2026-05-04 15:03 | 53.83621 | 10.18643 | 4632 ft | 221 kts | 100° |
| 2026-05-04 15:04 | 53.83367 | 10.21205 | 4503 ft | 220 kts | 100° |
| 2026-05-04 15:04 | 53.83119 | 10.23756 | 4376 ft | 219 kts | 99° |
| 2026-05-04 15:04 | 53.82884 | 10.26295 | 4244 ft | 217 kts | 99° |
| 2026-05-04 15:04 | 53.82654 | 10.28785 | 4104 ft | 216 kts | 99° |
| 2026-05-04 15:05 | 53.82405 | 10.31277 | 3863 ft | 211 kts | 104° |
| 2026-05-04 15:05 | 53.81674 | 10.33308 | 3626 ft | 200 kts | 147° |
| 2026-05-04 15:05 | 53.80402 | 10.33817 | 3354 ft | 186 kts | 197° |
| 2026-05-04 15:05 | 53.79449 | 10.32599 | 3173 ft | 167 kts | 241° |
| 2026-05-04 15:06 | 53.78839 | 10.30936 | 3117 ft | 167 kts | 232° |
| 2026-05-04 15:06 | 53.78083 | 10.29458 | 3037 ft | 165 kts | 232° |
| 2026-05-04 15:06 | 53.77340 | 10.27963 | 2997 ft | 167 kts | 233° |
| 2026-05-04 15:07 | 53.75857 | 10.24942 | 2997 ft | 166 kts | 233° |
| 2026-05-04 15:07 | 53.75120 | 10.23435 | 2999 ft | 166 kts | 233° |
| 2026-05-04 15:07 | 53.74382 | 10.21925 | 3005 ft | 167 kts | 233° |
| 2026-05-04 15:07 | 53.73640 | 10.20407 | 3004 ft | 168 kts | 233° |
| 2026-05-04 15:08 | 53.72896 | 10.18888 | 2894 ft | 167 kts | 233° |
| 2026-05-04 15:08 | 53.72173 | 10.17412 | 2706 ft | 158 kts | 234° |
| 2026-05-04 15:08 | 53.71489 | 10.16018 | 2513 ft | 151 kts | 233° |
| 2026-05-04 15:08 | 53.70831 | 10.14675 | 2317 ft | 146 kts | 235° |
| 2026-05-04 15:09 | 53.70211 | 10.13412 | 2131 ft | 130 kts | 234° |
| 2026-05-04 15:09 | 53.69674 | 10.12320 | 1953 ft | 115 kts | 238° |
| 2026-05-04 15:09 | 53.69169 | 10.11290 | 1807 ft | 114 kts | 237° |
| 2026-05-04 15:10 | 53.68161 | 10.09235 | 1507 ft | 115 kts | 237° |
| 2026-05-04 15:10 | 53.67652 | 10.08199 | 1349 ft | 114 kts | 239° |
| 2026-05-04 15:10 | 53.66644 | 10.06179 | 1016 ft | 113 kts | 236° |
| 2026-05-04 15:11 | 53.66118 | 10.05152 | 849 ft | 121 kts | 236° |
| 2026-05-04 15:11 | 53.65579 | 10.04024 | 767 ft | 124 kts | 238° |
| 2026-05-04 15:11 | 53.65032 | 10.02882 | 608 ft | 124 kts | 236° |
| 2026-05-04 15:11 | 53.64472 | 10.01735 | 401 ft | 127 kts | 234° |
| 2026-05-04 15:12 | 53.63913 | 10.00599 | 209 ft | 126 kts | 235° |
| 2026-05-04 15:12 | 53.63353 | 9.99467 | 57 ft | 125 kts | 234° |
| 2026-05-04 15:12 | 53.62874 | 9.98484 | 44 ft | 88 kts | 228° |
| 2026-05-04 15:12 | 53.62597 | 9.97932 | 42 ft | 32 kts | 230° |
| 2026-05-04 15:13 | 53.62485 | 9.97782 | 41 ft | 18 kts | 175° |
| 2026-05-04 15:13 | 53.62431 | 9.97934 | 47 ft | 17 kts | 83° |
| 2026-05-04 15:13 | 53.62482 | 9.98131 | 47 ft | 21 kts | 53° |
| 2026-05-04 15:13 | 53.62590 | 9.98350 | 47 ft | 27 kts | 49° |
| 2026-05-04 15:14 | 53.62720 | 9.98615 | 47 ft | 32 kts | 49° |
| 2026-05-04 15:14 | 53.62865 | 9.98908 | 47 ft | 34 kts | 50° |
| 2026-05-04 15:14 | 53.63001 | 9.99182 | 47 ft | 21 kts | 50° |
| 2026-05-04 15:14 | 53.63081 | 9.99356 | 47 ft | 7 kts | 56° |
| 2026-05-04 15:15 | 53.63082 | 9.99358 | 47 ft | 0 kts | 56° |
| 2026-05-04 15:15 | 53.63091 | 9.99381 | 47 ft | 5 kts | 56° |
| 2026-05-04 15:16 | 53.63186 | 9.99600 | 47 ft | 17 kts | 49° |
| 2026-05-04 15:16 | 53.63220 | 9.99751 | 49 ft | 15 kts | 123° |
| 2026-05-04 15:16 | 53.62992 | 9.99960 | 49 ft | 17 kts | 153° |
| 2026-05-04 15:17 | 53.62948 | 10.00090 | 49 ft | 7 kts | 78° |
| 2026-05-04 15:17 | 53.62929 | 10.00279 | 49 ft | 6 kts | 108° |
| 2026-05-04 15:17 | 53.62926 | 10.00295 | 49 ft | 2 kts | 108° |
| 2026-05-04 15:18 | 53.62925 | 10.00298 | 49 ft | 0 kts | 108° |